createdAt,value
2023-03-26T00:05:01.881Z,7.20
2023-03-26T00:10:09.691Z,7.20
2023-03-26T00:15:18.205Z,7.20
2023-03-26T00:20:26.782Z,7.10
2023-03-26T00:25:35.319Z,7.10
2023-03-26T00:30:42.538Z,7.20
2023-03-26T00:35:55.010Z,7.20
2023-03-26T00:41:05.508Z,7.20
2023-03-26T00:46:13.505Z,7.30
2023-03-26T00:51:22.885Z,7.30
2023-03-26T00:56:30.171Z,7.30
2023-03-26T01:01:38.202Z,7.30
2023-03-26T01:06:45.648Z,7.40
2023-03-26T01:11:52.581Z,7.40
2023-03-26T01:17:03.852Z,7.40
2023-03-26T01:22:21.326Z,7.40
2023-03-26T01:27:39.800Z,7.50
2023-03-26T01:32:58.686Z,7.50
2023-03-26T01:38:32.305Z,7.50
2023-03-26T01:44:01.897Z,7.50
2023-03-26T01:49:14.227Z,7.50
2023-03-26T01:54:25.253Z,7.50
2023-03-26T01:59:48.632Z,7.60
2023-03-26T02:05:00.169Z,7.50
2023-03-26T02:10:17.272Z,7.60
2023-03-26T02:15:24.813Z,7.50
2023-03-26T02:20:31.591Z,7.60
2023-03-26T02:25:40.414Z,7.50
2023-03-26T02:30:48.747Z,7.50
2023-03-26T02:35:57.436Z,7.50
2023-03-26T02:41:05.446Z,7.40
2023-03-26T02:46:12.143Z,7.30
2023-03-26T02:51:19.870Z,7.30
2023-03-26T02:56:26.945Z,7.30
2023-03-26T03:01:35.771Z,7.30
2023-03-26T03:06:44.478Z,7.30
2023-03-26T03:11:52.699Z,7.30
2023-03-26T03:16:59.991Z,7.30
2023-03-26T03:22:08.495Z,7.30
2023-03-26T03:27:16.348Z,7.30
2023-03-26T03:32:27.917Z,7.20
2023-03-26T03:37:34.956Z,7.20
2023-03-26T03:42:42.112Z,7.20
2023-03-26T03:47:49.891Z,7.20
2023-03-26T03:52:56.722Z,7.20
2023-03-26T03:58:03.827Z,7.20
2023-03-26T04:03:12.440Z,7.20
2023-03-26T04:08:19.658Z,7.20
2023-03-26T04:13:26.983Z,7.20
2023-03-26T04:18:33.607Z,7.10
2023-03-26T04:23:43.115Z,7.00
2023-03-26T04:29:00.216Z,6.80
2023-03-26T04:34:14.538Z,6.60
2023-03-26T04:39:24.896Z,6.60
2023-03-26T04:44:32.102Z,6.60
2023-03-26T04:49:38.715Z,6.70
2023-03-26T04:54:47.172Z,6.70
2023-03-26T04:59:54.459Z,6.70
2023-03-26T05:05:03.513Z,6.70
2023-03-26T05:10:13.625Z,6.70
2023-03-26T05:15:20.732Z,6.80
2023-03-26T05:20:31.873Z,6.70
2023-03-26T05:25:39.838Z,6.70
2023-03-26T05:30:47.772Z,6.70
2023-03-26T05:36:09.594Z,6.70
2023-03-26T05:41:17.850Z,6.60
2023-03-26T05:46:25.487Z,6.70
2023-03-26T05:51:33.419Z,6.70
2023-03-26T05:56:40.311Z,6.70
2023-03-26T06:01:47.432Z,6.70
2023-03-26T06:06:54.261Z,6.70
2023-03-26T06:12:01.510Z,6.50
2023-03-26T06:17:08.480Z,6.50
2023-03-26T06:22:16.000Z,6.60
2023-03-26T06:27:23.111Z,6.80
2023-03-26T06:32:32.864Z,7.00
2023-03-26T06:37:40.288Z,7.10
2023-03-26T06:43:09.226Z,7.20
2023-03-26T06:47:57.668Z,7.20
2023-03-26T06:53:03.422Z,7.30
2023-03-26T06:58:13.293Z,7.40
2023-03-26T07:03:19.918Z,7.40
2023-03-26T07:08:26.998Z,7.50
2023-03-26T07:13:34.432Z,7.60
2023-03-26T07:18:41.082Z,7.60
2023-03-26T07:23:50.115Z,7.90
2023-03-26T07:29:16.799Z,8.10
2023-03-26T07:34:40.651Z,8.20
2023-03-26T07:40:04.858Z,8.10
2023-03-26T07:45:41.159Z,8.30
2023-03-26T07:50:50.778Z,8.20
2023-03-26T07:56:08.342Z,8.10
2023-03-26T08:01:50.024Z,8.20
2023-03-26T08:07:01.370Z,8.80
2023-03-26T08:12:32.668Z,8.60
2023-03-26T08:18:03.640Z,8.70
2023-03-26T08:23:29.651Z,8.80
2023-03-26T08:28:50.915Z,9.10
2023-03-26T08:33:57.796Z,9.70
2023-03-26T08:39:07.417Z,9.40
2023-03-26T08:45:09.674Z,9.10
2023-03-26T08:50:56.974Z,8.80
2023-03-26T08:56:13.815Z,8.90
2023-03-26T09:01:40.599Z,9.90
2023-03-26T09:07:08.332Z,10.90
2023-03-26T09:12:43.018Z,10.50
2023-03-26T09:18:18.765Z,10.60
2023-03-26T09:23:58.704Z,9.80
2023-03-26T09:29:34.101Z,9.10
2023-03-26T09:35:22.396Z,8.90
2023-03-26T09:40:34.066Z,9.30
2023-03-26T09:46:19.624Z,9.70
2023-03-26T09:51:44.512Z,9.40
2023-03-26T09:57:17.544Z,9.30
2023-03-26T10:02:49.942Z,9.40
2023-03-26T10:08:32.386Z,10.20
2023-03-26T10:14:16.442Z,10.50
2023-03-26T10:19:37.375Z,9.80
2023-03-26T10:25:08.577Z,9.80
2023-03-26T10:30:42.381Z,10.00
2023-03-26T10:36:30.951Z,9.50
2023-03-26T10:41:56.888Z,9.70
2023-03-26T10:47:40.653Z,9.40
2023-03-26T10:53:11.781Z,9.60
2023-03-26T10:58:46.061Z,9.80
2023-03-26T11:03:53.493Z,10.30
2023-03-26T11:09:13.799Z,11.50
2023-03-26T11:14:43.686Z,11.30
2023-03-26T11:20:04.996Z,10.80
2023-03-26T11:25:19.556Z,10.60
2023-03-26T11:30:59.183Z,11.30
2023-03-26T11:36:14.365Z,11.60
2023-03-26T11:41:27.545Z,11.30
2023-03-26T11:46:38.494Z,10.90
2023-03-26T11:51:49.058Z,10.60
2023-03-26T11:57:09.147Z,10.30
2023-03-26T12:02:27.897Z,10.40
2023-03-26T12:07:38.199Z,10.00
2023-03-26T12:12:48.794Z,9.50
2023-03-26T12:17:59.764Z,9.90
2023-03-26T12:23:10.667Z,10.10
2023-03-26T12:28:21.797Z,10.40
2023-03-26T12:33:36.375Z,10.50
2023-03-26T12:39:16.969Z,10.40
2023-03-26T12:44:54.325Z,10.20
2023-03-26T12:49:12.495Z,10.40
2023-03-26T12:55:04.023Z,10.70
2023-03-26T13:00:32.062Z,10.60
2023-03-26T13:05:52.247Z,10.80
2023-03-26T13:11:13.502Z,10.60
2023-03-26T13:16:45.410Z,9.90
2023-03-26T13:22:13.249Z,10.10
2023-03-26T13:28:15.037Z,11.50
2023-03-26T13:33:33.681Z,12.00
2023-03-26T13:39:07.649Z,11.40
2023-03-26T13:45:04.661Z,11.00
2023-03-26T13:50:14.590Z,11.20
2023-03-26T13:55:48.152Z,11.40
2023-03-26T14:01:23.151Z,11.20
2023-03-26T14:07:07.719Z,11.00
2023-03-26T14:12:41.202Z,11.00
2023-03-26T14:18:17.436Z,10.70
2023-03-26T14:23:48.949Z,10.00
2023-03-26T14:29:32.569Z,9.70
2023-03-26T14:35:07.779Z,9.90
2023-03-26T14:40:50.820Z,10.00
2023-03-26T14:46:44.359Z,10.10
2023-03-26T14:52:21.394Z,10.30
2023-03-26T14:57:55.551Z,10.40
2023-03-26T15:03:16.360Z,10.00
2023-03-26T15:09:02.842Z,10.00
2023-03-26T15:14:40.971Z,9.70
2023-03-26T15:20:11.580Z,9.80
2023-03-26T15:26:13.701Z,10.10
2023-03-26T15:31:48.894Z,10.20
2023-03-26T15:37:43.022Z,9.80
2023-03-26T15:43:09.871Z,9.80
2023-03-26T15:48:31.698Z,9.60
2023-03-26T15:54:11.279Z,9.70
2023-03-26T15:59:51.962Z,9.00
2023-03-26T16:05:06.941Z,8.10
2023-03-26T16:10:51.043Z,7.70
2023-03-26T16:16:19.687Z,7.50
2023-03-26T16:21:40.499Z,7.50
2023-03-26T16:27:09.379Z,7.50
2023-03-26T16:32:36.470Z,7.50
2023-03-26T16:37:52.859Z,7.50
2023-03-26T16:43:26.922Z,7.50
2023-03-26T16:49:06.570Z,7.70
2023-03-26T16:54:26.521Z,7.70
2023-03-26T17:00:06.232Z,7.80
2023-03-26T17:05:28.284Z,7.70
2023-03-26T17:10:58.011Z,7.60
2023-03-26T17:16:27.183Z,7.90
2023-03-26T17:21:46.293Z,7.70
2023-03-26T17:27:07.669Z,7.60
2023-03-26T17:32:15.917Z,7.40
2023-03-26T17:37:33.715Z,7.30
2023-03-26T17:42:40.810Z,7.30
2023-03-26T17:48:10.228Z,7.30
2023-03-26T17:53:26.654Z,7.20
2023-03-26T17:58:48.610Z,7.20
2023-03-26T18:04:00.922Z,7.30
2023-03-26T18:09:47.141Z,7.40
2023-03-26T18:15:16.993Z,7.50
2023-03-26T18:25:36.662Z,7.50
2023-03-26T18:30:51.768Z,7.20
2023-03-26T18:36:01.329Z,7.30
2023-03-26T18:41:21.813Z,7.40
2023-03-26T18:46:29.637Z,7.50
2023-03-26T18:51:46.304Z,7.30
2023-03-26T18:56:49.280Z,7.20
2023-03-26T19:02:02.025Z,7.10
2023-03-26T19:07:18.601Z,7.20
2023-03-26T19:12:36.464Z,7.20
2023-03-26T19:17:47.022Z,7.00
2023-03-26T19:22:56.228Z,7.00
2023-03-26T19:28:04.787Z,7.20
2023-03-26T19:33:22.350Z,7.30
2023-03-26T19:38:34.426Z,7.30
2023-03-26T19:43:52.646Z,7.30
2023-03-26T19:49:01.394Z,7.30
2023-03-26T19:54:20.028Z,7.20
2023-03-26T19:59:29.483Z,7.10
2023-03-26T20:04:36.462Z,7.20
2023-03-26T20:09:45.685Z,7.10
2023-03-26T20:14:52.799Z,7.20
2023-03-26T20:19:59.996Z,7.00
2023-03-26T20:35:38.375Z,6.80
2023-03-26T20:40:47.885Z,7.00
2023-03-26T20:45:55.967Z,7.20
2023-03-26T20:51:03.564Z,7.10
2023-03-26T20:56:20.386Z,6.80
2023-03-26T21:01:28.008Z,7.00
2023-03-26T21:06:35.224Z,7.20
2023-03-26T21:12:04.554Z,7.10
2023-03-26T21:17:22.746Z,7.00
2023-03-26T21:22:46.506Z,6.80
2023-03-26T21:28:13.026Z,6.80
2023-03-26T21:33:20.633Z,6.90
2023-03-26T21:38:31.134Z,6.50
2023-03-26T21:43:38.054Z,6.70
2023-03-26T21:48:46.595Z,6.90
2023-03-26T21:53:54.534Z,6.90
2023-03-26T21:59:23.707Z,7.00
2023-03-26T22:04:50.061Z,6.80
2023-03-26T22:09:57.538Z,6.90
2023-03-26T22:15:05.030Z,6.60
2023-03-26T22:20:17.194Z,6.60
2023-03-26T22:25:25.273Z,6.80
2023-03-26T22:30:34.249Z,6.80
2023-03-26T22:35:43.754Z,6.50
2023-03-26T22:40:59.299Z,6.70
2023-03-26T22:46:08.821Z,6.60
2023-03-26T22:51:18.426Z,6.60
2023-03-26T22:56:26.165Z,6.70
2023-03-26T23:01:35.812Z,6.60
2023-03-26T23:06:43.091Z,6.60
2023-03-26T23:11:52.680Z,6.60
2023-03-26T23:17:01.223Z,6.50
2023-03-26T23:22:08.982Z,6.60
2023-03-26T23:27:16.890Z,6.50
2023-03-26T23:32:29.369Z,6.50
2023-03-26T23:37:37.018Z,6.70
2023-03-26T23:42:44.171Z,6.80
2023-03-26T23:47:51.085Z,6.70
2023-03-26T23:53:00.453Z,6.70
2023-03-26T23:58:07.385Z,6.60
